createdAt,value
2023-01-31T00:01:40.876Z,3.43
2023-01-31T00:04:12.333Z,4.23
2023-01-31T00:06:50.734Z,4.00
2023-01-31T00:09:17.731Z,3.60
2023-01-31T00:11:44.748Z,4.27
2023-01-31T00:14:19.143Z,3.10
2023-01-31T00:16:46.092Z,3.27
2023-01-31T00:19:12.979Z,4.20
2023-01-31T00:21:43.629Z,4.63
2023-01-31T00:24:13.623Z,4.23
2023-01-31T00:26:40.809Z,3.80
2023-01-31T00:29:07.724Z,2.97
2023-01-31T00:31:35.651Z,3.47
2023-01-31T00:34:03.237Z,6.57
2023-01-31T00:36:33.648Z,3.80
2023-01-31T00:39:04.692Z,3.13
2023-01-31T00:41:32.859Z,3.30
2023-01-31T00:44:00.164Z,3.90
2023-01-31T00:46:27.835Z,3.50
2023-01-31T00:48:56.302Z,3.20
2023-01-31T00:51:26.747Z,3.30
2023-01-31T00:53:54.387Z,3.63
2023-01-31T00:56:23.655Z,3.30
2023-01-31T00:58:51.048Z,2.80
2023-01-31T01:01:26.179Z,3.80
2023-01-31T01:03:54.807Z,3.70
2023-01-31T01:06:22.619Z,4.17
2023-01-31T01:08:51.483Z,3.20
2023-01-31T01:11:23.090Z,4.53
2023-01-31T01:13:50.987Z,3.77
2023-01-31T01:16:34.412Z,3.73
2023-01-31T01:19:06.273Z,2.90
2023-01-31T01:21:39.054Z,4.47
2023-01-31T01:24:09.324Z,3.20
2023-01-31T01:26:39.293Z,4.40
2023-01-31T01:29:06.439Z,4.40
2023-01-31T01:31:34.566Z,3.43
2023-01-31T01:34:13.440Z,4.40
2023-01-31T01:36:41.092Z,3.27
2023-01-31T01:39:11.684Z,3.40
2023-01-31T01:41:39.940Z,4.33
2023-01-31T01:44:44.846Z,3.83
2023-01-31T01:47:20.077Z,3.30
2023-01-31T01:50:04.191Z,3.43
2023-01-31T01:52:36.425Z,3.93
2023-01-31T01:55:29.289Z,3.93
2023-01-31T01:58:14.240Z,4.10
2023-01-31T02:00:42.835Z,2.70
2023-01-31T02:03:09.999Z,2.70
2023-01-31T02:05:57.851Z,4.30
2023-01-31T02:08:30.061Z,3.80
2023-01-31T02:11:03.373Z,3.80
2023-01-31T02:13:31.443Z,3.53
2023-01-31T02:15:58.739Z,3.80
2023-01-31T02:18:26.847Z,3.33
2023-01-31T02:21:44.563Z,3.10
2023-01-31T02:24:29.788Z,3.97
2023-01-31T02:27:31.316Z,3.43
2023-01-31T02:30:10.111Z,3.23
2023-01-31T02:33:06.976Z,2.80
2023-01-31T02:35:57.329Z,3.60
2023-01-31T02:39:14.901Z,3.40
2023-01-31T02:42:28.572Z,3.30
2023-01-31T02:45:10.056Z,3.50
2023-01-31T02:48:17.687Z,3.70
2023-01-31T02:51:19.093Z,3.97
2023-01-31T02:53:52.287Z,2.97
2023-01-31T02:56:24.510Z,3.30
2023-01-31T02:58:58.223Z,5.70
2023-01-31T03:01:31.978Z,4.40
2023-01-31T03:04:19.216Z,4.30
2023-01-31T03:07:05.332Z,3.53
2023-01-31T03:09:41.676Z,4.93
2023-01-31T03:12:36.546Z,3.30
2023-01-31T03:15:51.034Z,3.73
2023-01-31T03:18:25.304Z,4.50
2023-01-31T03:21:05.721Z,4.70
2023-01-31T03:23:35.892Z,3.90
2023-01-31T03:26:06.695Z,3.70
2023-01-31T03:28:37.191Z,3.80
2023-01-31T03:31:21.856Z,3.43
2023-01-31T03:33:55.572Z,3.87
2023-01-31T03:36:33.784Z,3.20
2023-01-31T03:39:39.590Z,3.93
2023-01-31T03:42:21.010Z,3.73
2023-01-31T03:45:04.771Z,3.20
2023-01-31T03:47:39.115Z,3.70
2023-01-31T03:50:14.333Z,3.90
2023-01-31T03:52:51.421Z,4.30
2023-01-31T03:55:26.872Z,2.80
2023-01-31T03:57:56.593Z,4.70
2023-01-31T04:00:25.645Z,4.97
2023-01-31T04:03:12.595Z,3.07
2023-01-31T04:05:40.858Z,4.83
2023-01-31T04:08:08.011Z,3.67
2023-01-31T04:10:35.537Z,3.47
2023-01-31T04:13:02.524Z,3.60
2023-01-31T04:15:29.631Z,3.27
2023-01-31T04:17:56.518Z,2.83
2023-01-31T04:20:23.414Z,3.20
2023-01-31T04:22:50.328Z,4.03
2023-01-31T04:25:17.589Z,3.13
2023-01-31T04:27:44.458Z,3.30
2023-01-31T04:30:12.016Z,3.20
2023-01-31T04:32:39.001Z,3.97
2023-01-31T04:35:06.127Z,3.47
2023-01-31T04:37:33.059Z,3.73
2023-01-31T04:39:59.953Z,3.23
2023-01-31T04:42:26.880Z,3.00
2023-01-31T04:44:53.797Z,2.53
2023-01-31T04:47:20.707Z,2.53
2023-01-31T04:49:47.622Z,3.00
2023-01-31T04:52:14.563Z,3.27
2023-01-31T04:54:41.960Z,2.90
2023-01-31T04:57:09.092Z,2.50
2023-01-31T04:59:36.172Z,2.80
2023-01-31T05:02:03.098Z,2.20
2023-01-31T05:04:30.007Z,2.80
2023-01-31T05:06:56.900Z,2.30
2023-01-31T05:09:24.944Z,2.70
2023-01-31T05:11:51.890Z,2.13
2023-01-31T05:14:21.044Z,3.27
2023-01-31T05:16:48.005Z,2.63
2023-01-31T05:19:16.134Z,2.70
2023-01-31T05:21:55.638Z,2.73
2023-01-31T05:24:22.939Z,2.87
2023-01-31T05:26:52.812Z,3.07
2023-01-31T05:29:19.976Z,2.67
2023-01-31T05:31:51.790Z,2.50
2023-01-31T05:34:18.687Z,2.60
2023-01-31T05:36:45.734Z,3.03
2023-01-31T05:39:12.612Z,3.30
2023-01-31T05:41:39.578Z,2.57
2023-01-31T05:44:06.509Z,2.03
2023-01-31T05:46:33.406Z,2.63
2023-01-31T05:49:00.384Z,2.53
2023-01-31T05:51:27.544Z,3.00
2023-01-31T05:53:54.959Z,2.80
2023-01-31T05:56:23.155Z,2.60
2023-01-31T05:58:51.026Z,3.03
2023-01-31T06:01:22.053Z,3.00
2023-01-31T06:03:49.897Z,2.50
2023-01-31T06:06:17.513Z,3.33
2023-01-31T06:08:44.424Z,3.83
2023-01-31T06:11:12.552Z,2.20
2023-01-31T06:13:43.495Z,2.80
2023-01-31T06:16:10.768Z,2.63
2023-01-31T06:18:37.804Z,2.23
2023-01-31T06:21:04.839Z,2.70
2023-01-31T06:23:31.860Z,1.73
2023-01-31T06:25:59.355Z,2.87
2023-01-31T06:28:26.379Z,3.40
2023-01-31T06:30:53.354Z,3.07
2023-01-31T06:33:21.550Z,3.23
2023-01-31T06:35:49.675Z,3.03
2023-01-31T06:38:16.618Z,2.60
2023-01-31T06:40:43.548Z,2.70
2023-01-31T06:43:10.449Z,3.30
2023-01-31T06:45:37.865Z,3.13
2023-01-31T06:48:04.897Z,3.07
2023-01-31T06:50:31.816Z,2.60
2023-01-31T06:52:59.351Z,2.30
2023-01-31T06:55:26.704Z,4.33
2023-01-31T06:57:55.338Z,2.60
2023-01-31T07:00:24.703Z,2.40
2023-01-31T07:02:53.028Z,3.23
2023-01-31T07:05:20.920Z,2.40
2023-01-31T07:07:49.724Z,3.00
2023-01-31T07:10:17.747Z,3.47
2023-01-31T07:12:44.659Z,3.17
2023-01-31T07:15:11.757Z,2.57
2023-01-31T07:17:38.676Z,2.80
2023-01-31T07:20:06.339Z,3.40
2023-01-31T07:22:33.384Z,3.00
2023-01-31T07:25:00.478Z,3.07
2023-01-31T07:27:27.548Z,3.47
2023-01-31T07:29:54.517Z,2.67
2023-01-31T07:32:21.479Z,4.27
2023-01-31T07:34:48.532Z,2.80
2023-01-31T07:37:15.445Z,2.67
2023-01-31T07:39:42.314Z,2.90
2023-01-31T07:42:09.242Z,2.83
2023-01-31T07:44:37.272Z,2.50
2023-01-31T07:47:04.281Z,2.77
2023-01-31T07:49:31.159Z,2.87
2023-01-31T07:51:58.065Z,3.40
2023-01-31T07:54:25.019Z,3.57
2023-01-31T07:56:51.916Z,4.20
2023-01-31T07:59:18.905Z,2.80
2023-01-31T08:02:04.420Z,3.97
2023-01-31T08:04:31.337Z,3.50
2023-01-31T08:07:01.396Z,3.40
2023-01-31T08:09:28.360Z,2.73
2023-01-31T08:11:55.280Z,4.07
2023-01-31T08:14:26.224Z,4.00
2023-01-31T08:16:53.244Z,3.80
2023-01-31T08:19:20.138Z,3.47
2023-01-31T08:21:47.082Z,4.43
2023-01-31T08:24:14.003Z,3.17
2023-01-31T08:26:43.536Z,4.03
2023-01-31T08:29:10.549Z,3.23
2023-01-31T08:31:37.541Z,3.57
2023-01-31T08:34:07.073Z,3.27
2023-01-31T08:36:34.241Z,3.60
2023-01-31T08:39:01.335Z,3.70
2023-01-31T08:41:30.441Z,3.47
2023-01-31T08:43:58.984Z,3.90
2023-01-31T08:46:30.823Z,3.83
2023-01-31T08:48:58.904Z,3.03
2023-01-31T08:51:26.029Z,2.63
2023-01-31T08:53:53.932Z,3.40
2023-01-31T08:56:26.159Z,3.67
2023-01-31T08:58:54.441Z,3.70
2023-01-31T09:01:22.217Z,3.00
2023-01-31T09:03:50.653Z,3.10
2023-01-31T09:06:21.276Z,3.50
2023-01-31T09:08:48.339Z,3.27
2023-01-31T09:11:18.971Z,3.00
2023-01-31T09:13:51.264Z,5.07
2023-01-31T09:16:19.556Z,3.80
2023-01-31T09:18:46.838Z,3.80
2023-01-31T09:21:18.600Z,2.53
2023-01-31T09:23:46.184Z,3.33
2023-01-31T09:26:14.843Z,4.17
2023-01-31T09:28:43.528Z,3.37
2023-01-31T09:31:17.961Z,3.53
2023-01-31T09:33:44.937Z,3.50
2023-01-31T09:36:15.417Z,2.80
2023-01-31T09:38:42.366Z,3.73
2023-01-31T09:41:38.942Z,4.23
2023-01-31T09:44:28.628Z,3.43
2023-01-31T09:47:13.385Z,3.50
2023-01-31T09:49:56.337Z,3.97
2023-01-31T09:52:23.480Z,3.40
2023-01-31T09:54:50.389Z,3.77
2023-01-31T09:57:51.019Z,3.10
2023-01-31T10:00:53.462Z,3.47
2023-01-31T10:04:10.582Z,3.23
2023-01-31T10:06:58.879Z,3.10
2023-01-31T10:09:43.563Z,2.80
2023-01-31T10:12:17.717Z,4.30
2023-01-31T10:14:55.934Z,2.60
2023-01-31T10:17:36.491Z,2.63
2023-01-31T10:20:34.569Z,2.70
2023-01-31T10:23:08.243Z,3.23
2023-01-31T10:25:59.753Z,3.37
2023-01-31T10:28:43.643Z,3.40
2023-01-31T10:31:45.210Z,4.00
2023-01-31T10:34:34.690Z,3.47
2023-01-31T10:37:25.581Z,3.73
2023-01-31T10:40:05.572Z,3.60
2023-01-31T10:42:38.560Z,3.40
2023-01-31T10:45:20.432Z,3.37
2023-01-31T10:47:54.290Z,3.13
2023-01-31T10:50:38.717Z,2.60
2023-01-31T10:53:43.988Z,3.70
2023-01-31T10:56:37.913Z,3.83
2023-01-31T10:59:17.370Z,3.83
2023-01-31T11:01:44.232Z,3.50
2023-01-31T11:04:38.096Z,3.50
2023-01-31T11:07:05.945Z,3.90
2023-01-31T11:09:38.207Z,3.87
2023-01-31T11:12:07.423Z,4.70
2023-01-31T11:14:36.329Z,4.10
2023-01-31T11:17:12.574Z,3.37
2023-01-31T11:19:46.118Z,4.30
2023-01-31T11:22:31.226Z,3.87
2023-01-31T11:25:01.701Z,3.90
2023-01-31T11:27:42.348Z,4.50
2023-01-31T11:30:30.709Z,4.40
2023-01-31T11:32:57.843Z,4.97
2023-01-31T11:35:31.544Z,4.53
2023-01-31T11:38:22.083Z,4.17
2023-01-31T11:40:49.210Z,4.77
2023-01-31T11:43:19.117Z,4.27
2023-01-31T11:46:02.557Z,4.60
2023-01-31T11:48:40.499Z,3.97
2023-01-31T11:51:08.121Z,4.13
2023-01-31T11:53:47.549Z,4.70
2023-01-31T11:56:28.271Z,5.20
2023-01-31T11:58:58.943Z,5.00
2023-01-31T12:01:27.107Z,4.93
2023-01-31T12:04:03.681Z,4.60
2023-01-31T12:06:38.608Z,4.43
2023-01-31T12:09:24.309Z,4.03
2023-01-31T12:11:58.617Z,3.93
2023-01-31T12:14:41.175Z,5.20
2023-01-31T12:17:14.257Z,4.90
2023-01-31T12:20:27.088Z,5.00
2023-01-31T12:23:37.527Z,4.13
2023-01-31T12:26:31.005Z,3.80
2023-01-31T12:29:25.734Z,4.57
2023-01-31T12:32:29.805Z,4.67
2023-01-31T12:35:31.033Z,4.10
2023-01-31T12:38:22.030Z,4.00
2023-01-31T12:41:21.288Z,4.43
2023-01-31T12:44:16.133Z,3.73
2023-01-31T12:47:23.068Z,4.00
2023-01-31T12:50:52.756Z,4.33
2023-01-31T12:53:41.056Z,4.03
2023-01-31T12:56:30.236Z,3.50
2023-01-31T12:59:33.989Z,4.30
2023-01-31T13:02:39.244Z,3.60
2023-01-31T13:05:27.738Z,3.90
2023-01-31T13:08:03.391Z,4.27
2023-01-31T13:10:37.119Z,3.50
2023-01-31T13:13:10.181Z,4.10
2023-01-31T13:15:47.765Z,3.40
2023-01-31T13:18:15.677Z,3.53
2023-01-31T13:21:07.857Z,3.00
2023-01-31T13:23:49.436Z,3.10
2023-01-31T13:26:29.860Z,2.67
2023-01-31T13:29:23.606Z,2.67
2023-01-31T13:32:04.766Z,2.57
2023-01-31T13:34:57.274Z,2.43
2023-01-31T13:37:26.670Z,3.00
2023-01-31T13:40:03.853Z,2.13
2023-01-31T13:42:33.121Z,2.40
2023-01-31T13:45:07.793Z,2.50
2023-01-31T13:47:52.757Z,2.80
2023-01-31T13:50:42.909Z,2.70
2023-01-31T13:53:26.766Z,2.37
2023-01-31T13:55:54.267Z,2.47
2023-01-31T13:58:30.268Z,2.57
2023-01-31T14:01:14.072Z,2.90
2023-01-31T14:04:12.181Z,3.00
2023-01-31T14:07:02.822Z,2.57
2023-01-31T14:09:37.115Z,1.67
2023-01-31T14:12:09.951Z,2.07
2023-01-31T14:14:39.296Z,2.20
2023-01-31T14:17:29.258Z,1.80
2023-01-31T14:19:56.099Z,2.40
2023-01-31T14:22:39.614Z,2.07
2023-01-31T14:25:15.391Z,2.90
2023-01-31T14:28:03.358Z,2.30
2023-01-31T14:30:47.761Z,2.47
2023-01-31T14:33:20.327Z,2.33
2023-01-31T14:36:20.170Z,2.00
2023-01-31T14:39:38.002Z,2.90
2023-01-31T14:43:02.142Z,2.27
2023-01-31T14:45:56.717Z,2.40
2023-01-31T14:49:06.039Z,2.30
2023-01-31T14:52:05.482Z,2.10
2023-01-31T14:54:56.796Z,2.63
2023-01-31T14:57:30.573Z,2.47
2023-01-31T15:00:19.336Z,3.03
2023-01-31T15:03:08.117Z,2.50
2023-01-31T15:05:34.915Z,2.97
2023-01-31T15:08:09.285Z,3.33
2023-01-31T15:11:06.114Z,2.93
2023-01-31T15:13:39.289Z,2.40
2023-01-31T15:16:22.276Z,3.00
2023-01-31T15:19:01.304Z,3.20
2023-01-31T15:21:33.328Z,3.30
2023-01-31T15:24:00.761Z,3.40
2023-01-31T15:26:32.864Z,3.40
2023-01-31T15:29:03.289Z,3.20
2023-01-31T15:31:38.070Z,3.40
2023-01-31T15:34:16.357Z,2.67
2023-01-31T15:37:01.019Z,2.70
2023-01-31T15:39:36.184Z,3.30
2023-01-31T15:42:29.462Z,2.97
2023-01-31T15:45:21.811Z,3.60
2023-01-31T15:48:09.084Z,3.23
2023-01-31T15:50:35.981Z,2.73
2023-01-31T15:53:14.515Z,3.20
2023-01-31T15:55:42.407Z,3.30
2023-01-31T15:58:19.197Z,2.73
2023-01-31T16:00:57.474Z,3.70
2023-01-31T16:03:28.969Z,3.50
2023-01-31T16:05:59.035Z,3.87
2023-01-31T16:08:34.127Z,3.50
2023-01-31T16:11:06.158Z,3.27
2023-01-31T16:13:38.802Z,3.47
2023-01-31T16:16:10.352Z,3.83
2023-01-31T16:18:38.429Z,3.57
2023-01-31T16:21:27.683Z,2.93
2023-01-31T16:24:11.073Z,3.07
2023-01-31T16:26:40.666Z,3.00
2023-01-31T16:29:15.014Z,3.50
2023-01-31T16:31:49.497Z,2.80
2023-01-31T16:34:26.803Z,3.10
2023-01-31T16:37:01.653Z,3.30
2023-01-31T16:39:33.303Z,3.57
2023-01-31T16:42:01.086Z,4.23
2023-01-31T16:44:35.541Z,3.53
2023-01-31T16:47:04.403Z,3.57
2023-01-31T16:49:36.325Z,3.50
2023-01-31T16:52:16.351Z,4.00
2023-01-31T16:54:50.084Z,4.40
2023-01-31T16:57:38.184Z,4.30
2023-01-31T17:00:31.477Z,3.80
2023-01-31T17:03:00.386Z,3.23
2023-01-31T17:05:41.326Z,2.37
2023-01-31T17:08:17.162Z,2.30
2023-01-31T17:10:47.355Z,1.67
2023-01-31T17:13:19.455Z,1.40
2023-01-31T17:15:46.584Z,1.53
2023-01-31T17:18:13.519Z,1.40
2023-01-31T17:20:43.020Z,1.83
2023-01-31T17:23:11.596Z,2.40
2023-01-31T17:25:38.700Z,2.10
2023-01-31T17:28:06.792Z,2.83
2023-01-31T17:30:34.630Z,2.90
2023-01-31T17:33:01.680Z,3.27
2023-01-31T17:35:42.062Z,3.10
2023-01-31T17:38:08.972Z,2.83
2023-01-31T17:40:38.737Z,2.87
2023-01-31T17:43:06.403Z,2.37
2023-01-31T17:45:33.351Z,2.00
2023-01-31T17:48:00.431Z,2.60
2023-01-31T17:50:28.916Z,2.57
2023-01-31T17:52:56.442Z,2.80
2023-01-31T17:55:25.071Z,2.20
2023-01-31T17:57:52.381Z,2.60
2023-01-31T18:00:21.371Z,2.60
2023-01-31T18:02:48.512Z,2.60
2023-01-31T18:05:20.482Z,3.40
2023-01-31T18:07:51.636Z,2.80
2023-01-31T18:10:18.609Z,4.07
2023-01-31T18:12:45.537Z,4.07
2023-01-31T18:15:12.992Z,3.43
2023-01-31T18:17:39.892Z,3.43
2023-01-31T18:20:07.576Z,2.80
2023-01-31T18:22:35.886Z,3.80
2023-01-31T18:25:05.504Z,1.43
2023-01-31T18:27:32.472Z,2.30
2023-01-31T18:29:59.358Z,0.97
2023-01-31T18:32:26.293Z,1.17
2023-01-31T18:34:53.255Z,1.00
2023-01-31T18:37:20.331Z,0.90
2023-01-31T18:39:52.232Z,1.53
2023-01-31T18:42:20.616Z,1.13
2023-01-31T18:44:47.757Z,1.27
2023-01-31T18:47:16.095Z,1.33
2023-01-31T18:49:43.417Z,1.90
2023-01-31T18:52:10.460Z,1.03
2023-01-31T18:54:37.976Z,1.47
2023-01-31T18:57:05.199Z,1.57
2023-01-31T18:59:34.708Z,1.53
2023-01-31T19:02:01.694Z,1.27
2023-01-31T19:04:28.616Z,2.13
2023-01-31T19:06:55.497Z,2.50
2023-01-31T19:09:22.526Z,1.93
2023-01-31T19:11:49.516Z,1.90
2023-01-31T19:14:16.506Z,2.37
2023-01-31T19:16:44.797Z,1.90
2023-01-31T19:19:12.141Z,1.60
2023-01-31T19:21:39.357Z,1.70
2023-01-31T19:24:11.381Z,2.03
2023-01-31T19:26:38.396Z,2.53
2023-01-31T19:29:08.055Z,2.80
2023-01-31T19:31:36.330Z,1.77
2023-01-31T19:34:06.351Z,2.17
2023-01-31T19:36:39.397Z,2.40
2023-01-31T19:39:10.766Z,4.00
2023-01-31T19:41:38.310Z,2.90
2023-01-31T19:44:05.629Z,2.40
2023-01-31T19:46:35.817Z,4.27
2023-01-31T19:49:02.995Z,3.47
2023-01-31T19:51:30.004Z,3.33
2023-01-31T19:53:59.996Z,3.73
2023-01-31T19:56:27.708Z,3.60
2023-01-31T19:58:54.621Z,4.43
2023-01-31T20:01:22.381Z,6.30
2023-01-31T20:03:50.138Z,5.53
2023-01-31T20:06:20.796Z,5.63
2023-01-31T20:08:53.199Z,5.47
2023-01-31T20:11:20.561Z,3.83
2023-01-31T20:13:53.065Z,4.83
2023-01-31T20:16:21.781Z,5.43
2023-01-31T20:18:49.910Z,4.13
2023-01-31T20:21:20.114Z,5.27
2023-01-31T20:23:48.490Z,5.07
2023-01-31T20:26:17.435Z,4.70
2023-01-31T20:28:44.802Z,4.80
2023-01-31T20:31:15.163Z,4.30
2023-01-31T20:33:42.615Z,4.17
2023-01-31T20:36:09.904Z,4.40
2023-01-31T20:38:40.127Z,5.10
2023-01-31T20:41:08.954Z,4.00
2023-01-31T20:43:36.631Z,5.03
2023-01-31T20:46:10.375Z,4.93
2023-01-31T20:48:37.923Z,4.50
2023-01-31T20:51:05.748Z,5.73
2023-01-31T20:53:33.036Z,4.27
2023-01-31T20:56:02.915Z,4.60
2023-01-31T20:58:33.063Z,3.70
2023-01-31T21:01:00.582Z,3.50
2023-01-31T21:03:28.200Z,3.87
2023-01-31T21:05:59.354Z,2.80
2023-01-31T21:08:27.402Z,3.60
2023-01-31T21:10:57.226Z,3.23
2023-01-31T21:13:25.621Z,3.40
2023-01-31T21:15:55.845Z,3.33
2023-01-31T21:18:27.381Z,3.50
2023-01-31T21:20:54.561Z,2.53
2023-01-31T21:23:21.454Z,2.43
2023-01-31T21:25:48.424Z,2.90
2023-01-31T21:28:15.346Z,2.10
2023-01-31T21:30:42.486Z,2.73
2023-01-31T21:33:09.562Z,2.87
2023-01-31T21:35:36.455Z,2.17
2023-01-31T21:38:03.347Z,3.27
2023-01-31T21:40:30.249Z,2.60
2023-01-31T21:42:57.137Z,2.90
2023-01-31T21:45:42.123Z,2.20
2023-01-31T21:48:29.386Z,2.40
2023-01-31T21:50:57.767Z,2.47
2023-01-31T21:53:27.484Z,2.90
2023-01-31T21:56:03.857Z,2.33
2023-01-31T21:58:30.792Z,2.27
2023-01-31T22:01:09.880Z,3.10
2023-01-31T22:03:38.571Z,2.50
2023-01-31T22:06:08.892Z,2.70
2023-01-31T22:08:36.326Z,2.30
2023-01-31T22:11:14.624Z,2.23
2023-01-31T22:13:46.621Z,3.50
2023-01-31T22:16:15.512Z,1.60
2023-01-31T22:18:43.977Z,2.17
2023-01-31T22:21:15.062Z,2.40
2023-01-31T22:23:48.457Z,2.50
2023-01-31T22:26:22.857Z,2.50
2023-01-31T22:28:50.266Z,2.43
2023-01-31T22:31:18.171Z,3.37
2023-01-31T22:33:45.397Z,2.50
2023-01-31T22:36:14.601Z,2.90
2023-01-31T22:38:42.510Z,3.00
2023-01-31T22:41:13.027Z,3.67
2023-01-31T22:43:42.901Z,4.27
2023-01-31T22:46:15.057Z,3.93
2023-01-31T22:48:42.085Z,3.57
2023-01-31T22:51:13.513Z,3.80
2023-01-31T22:53:41.347Z,4.90
2023-01-31T22:56:26.667Z,3.93
2023-01-31T22:58:58.802Z,4.30
2023-01-31T23:01:29.450Z,4.27
2023-01-31T23:03:59.657Z,3.93
2023-01-31T23:06:27.858Z,4.33
2023-01-31T23:08:55.672Z,5.07
2023-01-31T23:11:23.534Z,5.80
2023-01-31T23:13:50.646Z,3.70
2023-01-31T23:16:43.026Z,5.43
2023-01-31T23:19:10.928Z,5.70
2023-01-31T23:21:42.532Z,4.27
2023-01-31T23:24:10.389Z,4.97
2023-01-31T23:26:37.305Z,4.20
2023-01-31T23:29:04.219Z,5.40
2023-01-31T23:31:32.520Z,5.07
2023-01-31T23:34:00.584Z,5.67
2023-01-31T23:36:28.149Z,4.93
2023-01-31T23:38:55.094Z,6.30
2023-01-31T23:41:22.021Z,5.30
2023-01-31T23:43:48.882Z,4.80
2023-01-31T23:46:16.003Z,6.20
2023-01-31T23:48:43.347Z,4.50
2023-01-31T23:51:10.269Z,6.10
2023-01-31T23:53:37.150Z,4.73
2023-01-31T23:56:04.145Z,5.00
2023-01-31T23:58:31.129Z,4.67
